sensor_id;sensor_type;location;lat;lon;timestamp;temperature;humidity
52451;DHT22;38366;53.176;6.540;2023-04-12T00:00:24;7.80;99.90
52451;DHT22;38366;53.176;6.540;2023-04-12T00:02:50;7.90;99.90
52451;DHT22;38366;53.176;6.540;2023-04-12T00:05:22;7.90;99.90
52451;DHT22;38366;53.176;6.540;2023-04-12T00:07:54;8.00;99.90
52451;DHT22;38366;53.176;6.540;2023-04-12T00:10:21;8.00;99.90
52451;DHT22;38366;53.176;6.540;2023-04-12T00:12:47;8.00;99.90
52451;DHT22;38366;53.176;6.540;2023-04-12T00:15:13;7.90;99.90
52451;DHT22;38366;53.176;6.540;2023-04-12T00:17:40;8.00;99.90
52451;DHT22;38366;53.176;6.540;2023-04-12T00:20:06;8.00;99.90
52451;DHT22;38366;53.176;6.540;2023-04-12T00:22:39;8.00;99.90
52451;DHT22;38366;53.176;6.540;2023-04-12T00:25:06;8.00;99.90
52451;DHT22;38366;53.176;6.540;2023-04-12T00:27:32;8.00;99.90
52451;DHT22;38366;53.176;6.540;2023-04-12T00:29:58;8.00;99.90
52451;DHT22;38366;53.176;6.540;2023-04-12T00:32:23;8.00;99.90
52451;DHT22;38366;53.176;6.540;2023-04-12T00:34:49;8.00;99.90
52451;DHT22;38366;53.176;6.540;2023-04-12T00:37:15;8.10;99.90
52451;DHT22;38366;53.176;6.540;2023-04-12T00:39:40;8.10;99.90
52451;DHT22;38366;53.176;6.540;2023-04-12T00:42:06;8.00;99.90
52451;DHT22;38366;53.176;6.540;2023-04-12T00:44:32;8.00;99.90
52451;DHT22;38366;53.176;6.540;2023-04-12T00:46:58;8.00;99.90
52451;DHT22;38366;53.176;6.540;2023-04-12T00:49:28;8.00;99.90
52451;DHT22;38366;53.176;6.540;2023-04-12T00:52:06;8.00;99.90
52451;DHT22;38366;53.176;6.540;2023-04-12T00:54:33;8.00;99.90
52451;DHT22;38366;53.176;6.540;2023-04-12T00:57:00;8.00;99.90
52451;DHT22;38366;53.176;6.540;2023-04-12T00:59:26;8.10;99.90
52451;DHT22;38366;53.176;6.540;2023-04-12T01:01:56;8.10;99.90
52451;DHT22;38366;53.176;6.540;2023-04-12T01:04:22;8.10;99.90
52451;DHT22;38366;53.176;6.540;2023-04-12T01:10:08;8.20;99.90
52451;DHT22;38366;53.176;6.540;2023-04-12T01:13:08;8.20;99.90
52451;DHT22;38366;53.176;6.540;2023-04-12T01:15:40;8.20;99.90
52451;DHT22;38366;53.176;6.540;2023-04-12T01:18:13;8.20;99.90
52451;DHT22;38366;53.176;6.540;2023-04-12T01:20:56;8.20;99.90
52451;DHT22;38366;53.176;6.540;2023-04-12T01:26:43;8.30;99.90
52451;DHT22;38366;53.176;6.540;2023-04-12T01:29:19;8.30;99.90
52451;DHT22;38366;53.176;6.540;2023-04-12T01:32:00;8.40;99.90
52451;DHT22;38366;53.176;6.540;2023-04-12T01:34:32;8.50;99.90
52451;DHT22;38366;53.176;6.540;2023-04-12T01:37:01;8.60;99.90
52451;DHT22;38366;53.176;6.540;2023-04-12T01:39:28;8.50;99.90
52451;DHT22;38366;53.176;6.540;2023-04-12T01:41:55;8.50;99.90
52451;DHT22;38366;53.176;6.540;2023-04-12T01:44:21;8.50;99.90
52451;DHT22;38366;53.176;6.540;2023-04-12T01:46:47;8.60;99.90
52451;DHT22;38366;53.176;6.540;2023-04-12T01:49:15;8.60;99.90
52451;DHT22;38366;53.176;6.540;2023-04-12T01:54:29;8.60;99.90
52451;DHT22;38366;53.176;6.540;2023-04-12T01:56:57;8.60;99.90
52451;DHT22;38366;53.176;6.540;2023-04-12T01:59:35;8.60;99.90
52451;DHT22;38366;53.176;6.540;2023-04-12T02:02:03;8.70;99.90
52451;DHT22;38366;53.176;6.540;2023-04-12T02:04:29;8.70;99.90
52451;DHT22;38366;53.176;6.540;2023-04-12T02:06:56;8.70;99.90
52451;DHT22;38366;53.176;6.540;2023-04-12T02:09:22;8.30;99.90
52451;DHT22;38366;53.176;6.540;2023-04-12T02:11:48;8.60;99.90
52451;DHT22;38366;53.176;6.540;2023-04-12T02:14:14;8.70;99.90
52451;DHT22;38366;53.176;6.540;2023-04-12T02:16:40;8.70;99.90
52451;DHT22;38366;53.176;6.540;2023-04-12T02:19:13;8.70;99.90
52451;DHT22;38366;53.176;6.540;2023-04-12T02:21:40;8.50;99.90
52451;DHT22;38366;53.176;6.540;2023-04-12T02:24:07;8.50;99.90
52451;DHT22;38366;53.176;6.540;2023-04-12T02:26:32;8.50;99.90
52451;DHT22;38366;53.176;6.540;2023-04-12T02:28:58;8.60;99.90
52451;DHT22;38366;53.176;6.540;2023-04-12T02:31:24;8.50;99.90
52451;DHT22;38366;53.176;6.540;2023-04-12T02:33:49;8.60;99.90
52451;DHT22;38366;53.176;6.540;2023-04-12T02:36:15;8.60;99.90
52451;DHT22;38366;53.176;6.540;2023-04-12T02:38:42;8.50;99.90
52451;DHT22;38366;53.176;6.540;2023-04-12T02:41:08;8.50;99.90
52451;DHT22;38366;53.176;6.540;2023-04-12T02:43:34;8.60;99.90
52451;DHT22;38366;53.176;6.540;2023-04-12T02:45:59;8.50;99.90
52451;DHT22;38366;53.176;6.540;2023-04-12T02:48:25;8.60;99.90
52451;DHT22;38366;53.176;6.540;2023-04-12T02:50:51;8.60;99.90
52451;DHT22;38366;53.176;6.540;2023-04-12T02:53:16;8.50;99.90
52451;DHT22;38366;53.176;6.540;2023-04-12T02:55:42;8.50;99.90
52451;DHT22;38366;53.176;6.540;2023-04-12T02:58:08;8.50;99.90
52451;DHT22;38366;53.176;6.540;2023-04-12T03:00:34;8.50;99.90
52451;DHT22;38366;53.176;6.540;2023-04-12T03:03:00;8.40;99.90
52451;DHT22;38366;53.176;6.540;2023-04-12T03:05:28;8.40;99.90
52451;DHT22;38366;53.176;6.540;2023-04-12T03:07:54;8.50;99.90
52451;DHT22;38366;53.176;6.540;2023-04-12T03:10:19;8.40;99.90
52451;DHT22;38366;53.176;6.540;2023-04-12T03:12:45;8.50;99.90
52451;DHT22;38366;53.176;6.540;2023-04-12T03:15:11;8.40;99.90
52451;DHT22;38366;53.176;6.540;2023-04-12T03:17:37;8.50;99.90
52451;DHT22;38366;53.176;6.540;2023-04-12T03:20:04;8.60;99.90
52451;DHT22;38366;53.176;6.540;2023-04-12T03:22:35;8.40;99.90
52451;DHT22;38366;53.176;6.540;2023-04-12T03:25:04;8.40;99.90
52451;DHT22;38366;53.176;6.540;2023-04-12T03:27:30;8.40;99.90
52451;DHT22;38366;53.176;6.540;2023-04-12T03:29:56;8.40;99.90
52451;DHT22;38366;53.176;6.540;2023-04-12T03:32:22;8.40;99.90
52451;DHT22;38366;53.176;6.540;2023-04-12T03:34:48;8.50;99.90
52451;DHT22;38366;53.176;6.540;2023-04-12T03:37:13;8.50;99.90
52451;DHT22;38366;53.176;6.540;2023-04-12T03:39:39;8.50;99.90
52451;DHT22;38366;53.176;6.540;2023-04-12T03:42:05;8.50;99.90
52451;DHT22;38366;53.176;6.540;2023-04-12T03:44:31;8.50;99.90
52451;DHT22;38366;53.176;6.540;2023-04-12T03:46:58;8.50;99.90
52451;DHT22;38366;53.176;6.540;2023-04-12T03:49:24;8.50;99.90
52451;DHT22;38366;53.176;6.540;2023-04-12T03:51:50;8.40;99.90
52451;DHT22;38366;53.176;6.540;2023-04-12T03:54:16;8.40;99.90
52451;DHT22;38366;53.176;6.540;2023-04-12T03:56:42;8.40;99.90
52451;DHT22;38366;53.176;6.540;2023-04-12T03:59:08;8.40;99.90
52451;DHT22;38366;53.176;6.540;2023-04-12T04:01:36;8.40;99.90
52451;DHT22;38366;53.176;6.540;2023-04-12T04:04:03;8.40;99.90
52451;DHT22;38366;53.176;6.540;2023-04-12T04:06:29;8.40;99.90
52451;DHT22;38366;53.176;6.540;2023-04-12T04:08:56;8.30;99.90
52451;DHT22;38366;53.176;6.540;2023-04-12T04:11:22;8.30;99.90
52451;DHT22;38366;53.176;6.540;2023-04-12T04:13:49;8.20;99.90
52451;DHT22;38366;53.176;6.540;2023-04-12T04:16:14;8.20;99.90
52451;DHT22;38366;53.176;6.540;2023-04-12T04:18:40;8.20;99.90
52451;DHT22;38366;53.176;6.540;2023-04-12T04:21:06;8.20;99.90
52451;DHT22;38366;53.176;6.540;2023-04-12T04:23:32;8.10;99.90
52451;DHT22;38366;53.176;6.540;2023-04-12T04:26:07;8.20;99.90
52451;DHT22;38366;53.176;6.540;2023-04-12T04:28:40;8.10;99.90
52451;DHT22;38366;53.176;6.540;2023-04-12T04:31:14;8.00;99.90
52451;DHT22;38366;53.176;6.540;2023-04-12T04:33:41;8.10;99.90
52451;DHT22;38366;53.176;6.540;2023-04-12T04:36:07;8.10;99.90
52451;DHT22;38366;53.176;6.540;2023-04-12T04:38:34;8.10;99.90
52451;DHT22;38366;53.176;6.540;2023-04-12T04:41:00;8.00;99.90
52451;DHT22;38366;53.176;6.540;2023-04-12T04:43:30;8.00;99.90
52451;DHT22;38366;53.176;6.540;2023-04-12T04:45:56;8.00;99.90
52451;DHT22;38366;53.176;6.540;2023-04-12T04:48:22;8.00;99.90
52451;DHT22;38366;53.176;6.540;2023-04-12T04:50:48;7.90;99.90
52451;DHT22;38366;53.176;6.540;2023-04-12T04:53:17;8.00;99.90
52451;DHT22;38366;53.176;6.540;2023-04-12T04:55:43;7.90;99.90
52451;DHT22;38366;53.176;6.540;2023-04-12T04:58:08;7.90;99.90
52451;DHT22;38366;53.176;6.540;2023-04-12T05:00:34;7.90;99.90
52451;DHT22;38366;53.176;6.540;2023-04-12T05:03:01;7.90;99.90
52451;DHT22;38366;53.176;6.540;2023-04-12T05:05:29;7.90;99.90
52451;DHT22;38366;53.176;6.540;2023-04-12T05:07:56;7.80;99.90
52451;DHT22;38366;53.176;6.540;2023-04-12T05:10:22;7.80;99.90
52451;DHT22;38366;53.176;6.540;2023-04-12T05:12:48;7.80;99.90
52451;DHT22;38366;53.176;6.540;2023-04-12T05:15:14;7.70;99.90
52451;DHT22;38366;53.176;6.540;2023-04-12T05:17:40;7.70;99.90
52451;DHT22;38366;53.176;6.540;2023-04-12T05:20:06;7.70;99.90
52451;DHT22;38366;53.176;6.540;2023-04-12T05:22:33;7.70;99.90
52451;DHT22;38366;53.176;6.540;2023-04-12T05:24:59;7.70;99.90
52451;DHT22;38366;53.176;6.540;2023-04-12T05:27:26;7.70;99.90
52451;DHT22;38366;53.176;6.540;2023-04-12T05:29:58;7.70;99.90
52451;DHT22;38366;53.176;6.540;2023-04-12T05:32:24;7.60;99.90
52451;DHT22;38366;53.176;6.540;2023-04-12T05:34:50;7.70;99.90
52451;DHT22;38366;53.176;6.540;2023-04-12T05:37:17;7.70;99.90
52451;DHT22;38366;53.176;6.540;2023-04-12T05:39:42;7.60;99.90
52451;DHT22;38366;53.176;6.540;2023-04-12T05:42:08;7.60;99.90
52451;DHT22;38366;53.176;6.540;2023-04-12T05:44:34;7.60;99.90
52451;DHT22;38366;53.176;6.540;2023-04-12T05:47:03;7.60;99.90
52451;DHT22;38366;53.176;6.540;2023-04-12T05:49:29;7.60;99.90
52451;DHT22;38366;53.176;6.540;2023-04-12T05:51:58;7.60;99.90
52451;DHT22;38366;53.176;6.540;2023-04-12T05:54:24;7.60;99.90
52451;DHT22;38366;53.176;6.540;2023-04-12T05:56:50;7.60;99.90
52451;DHT22;38366;53.176;6.540;2023-04-12T05:59:16;7.60;99.90
52451;DHT22;38366;53.176;6.540;2023-04-12T06:01:44;7.60;99.90
52451;DHT22;38366;53.176;6.540;2023-04-12T06:04:10;7.70;99.90
52451;DHT22;38366;53.176;6.540;2023-04-12T06:06:36;7.70;99.90
52451;DHT22;38366;53.176;6.540;2023-04-12T06:09:02;7.60;99.90
52451;DHT22;38366;53.176;6.540;2023-04-12T06:11:29;7.60;99.90
52451;DHT22;38366;53.176;6.540;2023-04-12T06:13:58;7.60;99.90
52451;DHT22;38366;53.176;6.540;2023-04-12T06:16:24;7.60;99.90
52451;DHT22;38366;53.176;6.540;2023-04-12T06:18:50;7.60;99.90
52451;DHT22;38366;53.176;6.540;2023-04-12T06:21:15;7.60;99.90
52451;DHT22;38366;53.176;6.540;2023-04-12T06:23:41;7.60;99.90
52451;DHT22;38366;53.176;6.540;2023-04-12T06:26:07;7.70;99.90
52451;DHT22;38366;53.176;6.540;2023-04-12T06:28:33;7.60;99.90
52451;DHT22;38366;53.176;6.540;2023-04-12T06:30:59;7.60;99.90
52451;DHT22;38366;53.176;6.540;2023-04-12T06:33:25;7.60;99.90
52451;DHT22;38366;53.176;6.540;2023-04-12T06:35:51;7.60;99.90
52451;DHT22;38366;53.176;6.540;2023-04-12T06:38:18;7.60;99.90
52451;DHT22;38366;53.176;6.540;2023-04-12T06:40:43;7.60;99.90
52451;DHT22;38366;53.176;6.540;2023-04-12T06:43:09;7.50;99.90
52451;DHT22;38366;53.176;6.540;2023-04-12T06:45:35;7.50;99.90
52451;DHT22;38366;53.176;6.540;2023-04-12T06:48:01;7.50;99.90
52451;DHT22;38366;53.176;6.540;2023-04-12T06:50:26;7.60;99.90
52451;DHT22;38366;53.176;6.540;2023-04-12T06:52:52;7.60;99.90
52451;DHT22;38366;53.176;6.540;2023-04-12T06:55:18;7.60;99.90
52451;DHT22;38366;53.176;6.540;2023-04-12T06:57:44;7.60;99.90
52451;DHT22;38366;53.176;6.540;2023-04-12T07:00:11;7.60;99.90
52451;DHT22;38366;53.176;6.540;2023-04-12T07:02:36;7.50;99.90
52451;DHT22;38366;53.176;6.540;2023-04-12T07:05:04;7.60;99.90
52451;DHT22;38366;53.176;6.540;2023-04-12T07:07:30;7.60;99.90
52451;DHT22;38366;53.176;6.540;2023-04-12T07:09:55;7.60;99.90
52451;DHT22;38366;53.176;6.540;2023-04-12T07:12:21;7.70;99.90
52451;DHT22;38366;53.176;6.540;2023-04-12T07:14:47;7.50;99.90
52451;DHT22;38366;53.176;6.540;2023-04-12T07:17:12;7.60;99.90
52451;DHT22;38366;53.176;6.540;2023-04-12T07:19:39;7.50;99.90
52451;DHT22;38366;53.176;6.540;2023-04-12T07:22:06;7.50;99.90
52451;DHT22;38366;53.176;6.540;2023-04-12T07:24:32;7.60;99.90
52451;DHT22;38366;53.176;6.540;2023-04-12T07:26:58;7.50;99.90
52451;DHT22;38366;53.176;6.540;2023-04-12T07:29:23;7.70;99.90
52451;DHT22;38366;53.176;6.540;2023-04-12T07:31:49;7.60;99.90
52451;DHT22;38366;53.176;6.540;2023-04-12T07:34:15;7.60;99.90
52451;DHT22;38366;53.176;6.540;2023-04-12T07:36:41;7.60;99.90
52451;DHT22;38366;53.176;6.540;2023-04-12T07:39:08;7.60;99.90
52451;DHT22;38366;53.176;6.540;2023-04-12T07:41:37;7.60;99.90
52451;DHT22;38366;53.176;6.540;2023-04-12T07:44:03;7.70;99.90
52451;DHT22;38366;53.176;6.540;2023-04-12T07:46:28;7.70;99.90
52451;DHT22;38366;53.176;6.540;2023-04-12T07:48:54;7.70;99.90
52451;DHT22;38366;53.176;6.540;2023-04-12T07:51:20;7.70;99.90
52451;DHT22;38366;53.176;6.540;2023-04-12T07:53:45;7.70;99.90
52451;DHT22;38366;53.176;6.540;2023-04-12T07:56:13;7.80;99.90
52451;DHT22;38366;53.176;6.540;2023-04-12T07:58:39;7.80;99.90
52451;DHT22;38366;53.176;6.540;2023-04-12T08:01:05;7.80;99.90
52451;DHT22;38366;53.176;6.540;2023-04-12T08:03:31;7.80;99.90
52451;DHT22;38366;53.176;6.540;2023-04-12T08:05:57;7.70;99.90
52451;DHT22;38366;53.176;6.540;2023-04-12T08:08:23;7.80;99.90
52451;DHT22;38366;53.176;6.540;2023-04-12T08:10:49;7.80;99.90
52451;DHT22;38366;53.176;6.540;2023-04-12T08:13:15;7.80;99.90
52451;DHT22;38366;53.176;6.540;2023-04-12T08:15:41;7.80;99.90
52451;DHT22;38366;53.176;6.540;2023-04-12T08:18:08;7.80;99.90
52451;DHT22;38366;53.176;6.540;2023-04-12T08:20:34;7.80;99.90
52451;DHT22;38366;53.176;6.540;2023-04-12T08:23:01;7.90;99.90
52451;DHT22;38366;53.176;6.540;2023-04-12T08:25:27;7.90;99.90
52451;DHT22;38366;53.176;6.540;2023-04-12T08:27:52;8.00;99.90
52451;DHT22;38366;53.176;6.540;2023-04-12T08:30:18;8.10;99.90
52451;DHT22;38366;53.176;6.540;2023-04-12T08:32:44;8.10;99.90
52451;DHT22;38366;53.176;6.540;2023-04-12T08:35:10;8.10;99.90
52451;DHT22;38366;53.176;6.540;2023-04-12T08:37:36;8.10;99.90
52451;DHT22;38366;53.176;6.540;2023-04-12T08:40:05;8.10;99.90
52451;DHT22;38366;53.176;6.540;2023-04-12T08:42:36;8.20;99.90
52451;DHT22;38366;53.176;6.540;2023-04-12T08:45:09;8.10;99.90
52451;DHT22;38366;53.176;6.540;2023-04-12T08:47:41;8.20;99.90
52451;DHT22;38366;53.176;6.540;2023-04-12T08:50:08;8.20;99.90
52451;DHT22;38366;53.176;6.540;2023-04-12T08:52:36;8.20;99.90
52451;DHT22;38366;53.176;6.540;2023-04-12T08:55:06;8.30;99.90
52451;DHT22;38366;53.176;6.540;2023-04-12T08:57:33;8.40;99.90
52451;DHT22;38366;53.176;6.540;2023-04-12T09:00:00;8.40;99.90
52451;DHT22;38366;53.176;6.540;2023-04-12T09:02:26;8.40;99.90
52451;DHT22;38366;53.176;6.540;2023-04-12T09:04:52;8.30;99.90
52451;DHT22;38366;53.176;6.540;2023-04-12T09:07:19;8.40;99.90
52451;DHT22;38366;53.176;6.540;2023-04-12T09:09:48;8.40;99.90
52451;DHT22;38366;53.176;6.540;2023-04-12T09:12:15;8.40;99.90
52451;DHT22;38366;53.176;6.540;2023-04-12T09:14:41;8.50;99.90
52451;DHT22;38366;53.176;6.540;2023-04-12T09:17:25;8.60;99.90
52451;DHT22;38366;53.176;6.540;2023-04-12T09:19:52;8.60;99.90
52451;DHT22;38366;53.176;6.540;2023-04-12T09:22:34;8.60;99.90
52451;DHT22;38366;53.176;6.540;2023-04-12T09:25:01;8.70;99.90
52451;DHT22;38366;53.176;6.540;2023-04-12T09:27:27;8.70;99.90
52451;DHT22;38366;53.176;6.540;2023-04-12T09:30:07;8.70;99.90
52451;DHT22;38366;53.176;6.540;2023-04-12T09:32:33;8.80;99.90
52451;DHT22;38366;53.176;6.540;2023-04-12T09:34:59;8.80;99.90
52451;DHT22;38366;53.176;6.540;2023-04-12T09:37:26;8.90;99.90
52451;DHT22;38366;53.176;6.540;2023-04-12T09:40:08;8.90;99.90
52451;DHT22;38366;53.176;6.540;2023-04-12T09:42:35;8.80;99.90
52451;DHT22;38366;53.176;6.540;2023-04-12T09:45:22;8.90;99.90
52451;DHT22;38366;53.176;6.540;2023-04-12T09:47:49;9.00;99.90
52451;DHT22;38366;53.176;6.540;2023-04-12T09:50:29;9.10;99.90
52451;DHT22;38366;53.176;6.540;2023-04-12T09:52:58;9.30;99.90
52451;DHT22;38366;53.176;6.540;2023-04-12T09:55:25;9.40;99.90
52451;DHT22;38366;53.176;6.540;2023-04-12T09:57:53;9.50;99.90
52451;DHT22;38366;53.176;6.540;2023-04-12T10:00:22;9.60;99.90
52451;DHT22;38366;53.176;6.540;2023-04-12T10:02:50;9.80;99.90
52451;DHT22;38366;53.176;6.540;2023-04-12T10:05:18;9.80;99.90
52451;DHT22;38366;53.176;6.540;2023-04-12T10:07:45;10.00;99.90
52451;DHT22;38366;53.176;6.540;2023-04-12T10:10:13;10.00;99.90
52451;DHT22;38366;53.176;6.540;2023-04-12T10:12:40;9.90;99.90
52451;DHT22;38366;53.176;6.540;2023-04-12T10:15:08;10.00;99.90
52451;DHT22;38366;53.176;6.540;2023-04-12T10:17:46;10.00;99.90
52451;DHT22;38366;53.176;6.540;2023-04-12T10:20:14;10.30;99.90
52451;DHT22;38366;53.176;6.540;2023-04-12T10:22:41;10.60;99.90
52451;DHT22;38366;53.176;6.540;2023-04-12T10:25:35;10.90;99.90
52451;DHT22;38366;53.176;6.540;2023-04-12T10:28:16;11.20;99.90
52451;DHT22;38366;53.176;6.540;2023-04-12T10:30:43;11.60;99.90
52451;DHT22;38366;53.176;6.540;2023-04-12T10:33:10;12.10;99.90
52451;DHT22;38366;53.176;6.540;2023-04-12T10:38:24;12.60;99.90
52451;DHT22;38366;53.176;6.540;2023-04-12T10:43:34;12.60;99.90
52451;DHT22;38366;53.176;6.540;2023-04-12T10:46:00;12.30;99.90
52451;DHT22;38366;53.176;6.540;2023-04-12T10:48:35;12.50;99.90
52451;DHT22;38366;53.176;6.540;2023-04-12T10:51:19;12.40;99.90
52451;DHT22;38366;53.176;6.540;2023-04-12T10:56:47;12.00;99.90
52451;DHT22;38366;53.176;6.540;2023-04-12T10:59:13;12.20;99.90
52451;DHT22;38366;53.176;6.540;2023-04-12T11:01:40;12.30;99.90
52451;DHT22;38366;53.176;6.540;2023-04-12T11:04:10;12.30;99.90
52451;DHT22;38366;53.176;6.540;2023-04-12T11:06:58;12.30;99.90
52451;DHT22;38366;53.176;6.540;2023-04-12T11:14:38;12.80;99.90
52451;DHT22;38366;53.176;6.540;2023-04-12T11:19:45;13.10;99.90
52451;DHT22;38366;53.176;6.540;2023-04-12T11:22:16;13.40;99.90
52451;DHT22;38366;53.176;6.540;2023-04-12T11:24:44;13.40;99.90
52451;DHT22;38366;53.176;6.540;2023-04-12T11:27:10;13.50;99.90
52451;DHT22;38366;53.176;6.540;2023-04-12T11:29:36;13.40;99.90
52451;DHT22;38366;53.176;6.540;2023-04-12T11:32:03;13.30;99.90
52451;DHT22;38366;53.176;6.540;2023-04-12T11:34:33;13.30;99.90
52451;DHT22;38366;53.176;6.540;2023-04-12T11:36:59;13.40;99.90
52451;DHT22;38366;53.176;6.540;2023-04-12T11:39:26;13.40;99.90
52451;DHT22;38366;53.176;6.540;2023-04-12T11:41:53;13.50;99.90
52451;DHT22;38366;53.176;6.540;2023-04-12T11:44:19;13.50;99.90
52451;DHT22;38366;53.176;6.540;2023-04-12T11:46:47;13.50;99.90
52451;DHT22;38366;53.176;6.540;2023-04-12T11:49:18;13.50;99.90
52451;DHT22;38366;53.176;6.540;2023-04-12T11:51:44;13.50;99.90
52451;DHT22;38366;53.176;6.540;2023-04-12T11:54:11;13.50;99.90
52451;DHT22;38366;53.176;6.540;2023-04-12T11:56:40;13.50;99.90
52451;DHT22;38366;53.176;6.540;2023-04-12T11:59:07;13.40;99.90
52451;DHT22;38366;53.176;6.540;2023-04-12T12:01:36;13.30;99.90
52451;DHT22;38366;53.176;6.540;2023-04-12T12:04:03;13.40;99.90
52451;DHT22;38366;53.176;6.540;2023-04-12T12:06:29;13.40;99.90
52451;DHT22;38366;53.176;6.540;2023-04-12T12:08:55;13.60;99.90
52451;DHT22;38366;53.176;6.540;2023-04-12T12:11:23;13.50;99.90
52451;DHT22;38366;53.176;6.540;2023-04-12T12:14:07;13.40;99.90
52451;DHT22;38366;53.176;6.540;2023-04-12T12:16:33;13.40;99.90
52451;DHT22;38366;53.176;6.540;2023-04-12T12:19:03;13.40;99.90
52451;DHT22;38366;53.176;6.540;2023-04-12T12:21:29;13.30;99.90
52451;DHT22;38366;53.176;6.540;2023-04-12T12:23:56;13.20;99.90
52451;DHT22;38366;53.176;6.540;2023-04-12T12:26:26;13.10;99.90
52451;DHT22;38366;53.176;6.540;2023-04-12T12:28:54;13.00;99.90
52451;DHT22;38366;53.176;6.540;2023-04-12T12:31:22;12.80;99.90
52451;DHT22;38366;53.176;6.540;2023-04-12T12:33:52;12.70;99.90
52451;DHT22;38366;53.176;6.540;2023-04-12T12:36:18;12.70;99.90
52451;DHT22;38366;53.176;6.540;2023-04-12T12:38:45;12.60;99.90
52451;DHT22;38366;53.176;6.540;2023-04-12T12:41:22;12.60;99.90
52451;DHT22;38366;53.176;6.540;2023-04-12T12:43:51;12.60;99.90
52451;DHT22;38366;53.176;6.540;2023-04-12T12:46:18;12.70;99.90
52451;DHT22;38366;53.176;6.540;2023-04-12T12:48:45;12.70;99.90
52451;DHT22;38366;53.176;6.540;2023-04-12T12:51:12;12.70;99.90
52451;DHT22;38366;53.176;6.540;2023-04-12T12:53:39;12.90;99.90
52451;DHT22;38366;53.176;6.540;2023-04-12T12:56:11;13.00;99.90
52451;DHT22;38366;53.176;6.540;2023-04-12T12:58:37;13.10;99.90
52451;DHT22;38366;53.176;6.540;2023-04-12T13:01:03;13.20;99.90
52451;DHT22;38366;53.176;6.540;2023-04-12T13:03:32;13.30;99.90
52451;DHT22;38366;53.176;6.540;2023-04-12T13:05:58;13.50;99.90
52451;DHT22;38366;53.176;6.540;2023-04-12T13:08:25;13.80;99.90
52451;DHT22;38366;53.176;6.540;2023-04-12T13:10:50;13.90;99.90
52451;DHT22;38366;53.176;6.540;2023-04-12T13:13:17;13.80;99.90
52451;DHT22;38366;53.176;6.540;2023-04-12T13:15:43;13.60;99.90
52451;DHT22;38366;53.176;6.540;2023-04-12T13:18:11;13.30;99.90
52451;DHT22;38366;53.176;6.540;2023-04-12T13:20:40;13.20;99.90
52451;DHT22;38366;53.176;6.540;2023-04-12T13:23:06;13.10;99.90
52451;DHT22;38366;53.176;6.540;2023-04-12T13:25:31;13.00;99.90
52451;DHT22;38366;53.176;6.540;2023-04-12T13:27:57;12.90;99.90
52451;DHT22;38366;53.176;6.540;2023-04-12T13:30:23;12.80;99.90
52451;DHT22;38366;53.176;6.540;2023-04-12T13:32:49;12.80;99.90
52451;DHT22;38366;53.176;6.540;2023-04-12T13:35:14;12.80;99.90
52451;DHT22;38366;53.176;6.540;2023-04-12T13:37:40;12.80;99.90
52451;DHT22;38366;53.176;6.540;2023-04-12T13:40:07;12.80;99.90
52451;DHT22;38366;53.176;6.540;2023-04-12T13:42:33;12.90;99.90
52451;DHT22;38366;53.176;6.540;2023-04-12T13:44:59;12.90;99.90
52451;DHT22;38366;53.176;6.540;2023-04-12T13:47:26;12.90;99.90
52451;DHT22;38366;53.176;6.540;2023-04-12T13:49:52;12.90;99.90
52451;DHT22;38366;53.176;6.540;2023-04-12T13:52:19;12.80;99.90
52451;DHT22;38366;53.176;6.540;2023-04-12T13:54:45;12.80;99.90
52451;DHT22;38366;53.176;6.540;2023-04-12T13:57:11;12.80;99.90
52451;DHT22;38366;53.176;6.540;2023-04-12T13:59:37;12.80;99.90
52451;DHT22;38366;53.176;6.540;2023-04-12T14:02:02;12.80;99.90
52451;DHT22;38366;53.176;6.540;2023-04-12T14:04:29;12.70;99.90
52451;DHT22;38366;53.176;6.540;2023-04-12T14:06:55;12.70;99.90
52451;DHT22;38366;53.176;6.540;2023-04-12T14:09:29;12.70;99.90
52451;DHT22;38366;53.176;6.540;2023-04-12T14:11:56;12.70;99.90
52451;DHT22;38366;53.176;6.540;2023-04-12T14:14:25;12.60;99.90
52451;DHT22;38366;53.176;6.540;2023-04-12T14:16:52;12.60;99.90
52451;DHT22;38366;53.176;6.540;2023-04-12T14:19:22;12.70;99.90
52451;DHT22;38366;53.176;6.540;2023-04-12T14:21:48;12.70;99.90
52451;DHT22;38366;53.176;6.540;2023-04-12T14:24:17;12.60;99.90
52451;DHT22;38366;53.176;6.540;2023-04-12T14:26:43;12.60;99.90
52451;DHT22;38366;53.176;6.540;2023-04-12T14:29:10;12.50;99.90
52451;DHT22;38366;53.176;6.540;2023-04-12T14:31:36;12.40;99.90
52451;DHT22;38366;53.176;6.540;2023-04-12T14:34:03;12.40;99.90
52451;DHT22;38366;53.176;6.540;2023-04-12T14:36:29;12.30;99.90
52451;DHT22;38366;53.176;6.540;2023-04-12T14:38:56;12.30;99.90
52451;DHT22;38366;53.176;6.540;2023-04-12T14:41:22;12.40;99.90
52451;DHT22;38366;53.176;6.540;2023-04-12T14:43:48;12.40;99.90
52451;DHT22;38366;53.176;6.540;2023-04-12T14:46:16;12.50;99.90
52451;DHT22;38366;53.176;6.540;2023-04-12T14:48:42;12.50;99.90
52451;DHT22;38366;53.176;6.540;2023-04-12T14:51:08;12.50;99.90
52451;DHT22;38366;53.176;6.540;2023-04-12T14:53:34;12.60;99.90
52451;DHT22;38366;53.176;6.540;2023-04-12T14:56:00;12.60;99.90
52451;DHT22;38366;53.176;6.540;2023-04-12T14:58:30;12.70;99.90
52451;DHT22;38366;53.176;6.540;2023-04-12T15:00:59;12.80;99.90
52451;DHT22;38366;53.176;6.540;2023-04-12T15:03:25;12.90;99.90
52451;DHT22;38366;53.176;6.540;2023-04-12T15:05:54;13.00;99.90
52451;DHT22;38366;53.176;6.540;2023-04-12T15:08:20;13.00;99.90
52451;DHT22;38366;53.176;6.540;2023-04-12T15:10:47;13.10;99.90
52451;DHT22;38366;53.176;6.540;2023-04-12T15:13:13;13.10;99.90
52451;DHT22;38366;53.176;6.540;2023-04-12T15:15:39;13.00;99.90
52451;DHT22;38366;53.176;6.540;2023-04-12T15:18:06;12.90;99.90
52451;DHT22;38366;53.176;6.540;2023-04-12T15:20:32;12.80;99.90
52451;DHT22;38366;53.176;6.540;2023-04-12T15:22:58;12.60;99.90
52451;DHT22;38366;53.176;6.540;2023-04-12T15:25:24;12.50;99.90
52451;DHT22;38366;53.176;6.540;2023-04-12T15:27:50;12.50;99.90
52451;DHT22;38366;53.176;6.540;2023-04-12T15:30:16;12.50;99.90
52451;DHT22;38366;53.176;6.540;2023-04-12T15:32:42;12.50;99.90
52451;DHT22;38366;53.176;6.540;2023-04-12T15:35:08;12.50;99.90
52451;DHT22;38366;53.176;6.540;2023-04-12T15:37:34;12.40;99.90
52451;DHT22;38366;53.176;6.540;2023-04-12T15:40:01;12.10;99.90
52451;DHT22;38366;53.176;6.540;2023-04-12T15:42:39;12.10;99.90
52451;DHT22;38366;53.176;6.540;2023-04-12T15:45:06;11.90;99.90
52451;DHT22;38366;53.176;6.540;2023-04-12T15:47:33;11.80;99.90
52451;DHT22;38366;53.176;6.540;2023-04-12T15:49:59;11.60;99.90
52451;DHT22;38366;53.176;6.540;2023-04-12T15:52:25;11.50;99.90
52451;DHT22;38366;53.176;6.540;2023-04-12T15:54:51;11.40;99.90
52451;DHT22;38366;53.176;6.540;2023-04-12T15:57:17;11.40;99.90
52451;DHT22;38366;53.176;6.540;2023-04-12T15:59:46;11.40;99.90
52451;DHT22;38366;53.176;6.540;2023-04-12T16:09:07;11.40;99.90
52451;DHT22;38366;53.176;6.540;2023-04-12T16:11:32;11.50;99.90
52451;DHT22;38366;53.176;6.540;2023-04-12T16:13:59;11.50;99.90